sensor_id;sensor_type;location;lat;lon;timestamp;P1;durP1;ratioP1;P2;durP2;ratioP2
51467;SDS011;37545;45.302;-122.946;2024-03-07T00:01:14;0.93;;;0.30;;
51467;SDS011;37545;45.302;-122.946;2024-03-07T00:03:45;0.93;;;0.22;;
51467;SDS011;37545;45.302;-122.946;2024-03-07T00:06:20;0.10;;;0.10;;
51467;SDS011;37545;45.302;-122.946;2024-03-07T00:08:50;0.68;;;0.30;;
51467;SDS011;37545;45.302;-122.946;2024-03-07T00:11:20;1.00;;;0.30;;
51467;SDS011;37545;45.302;-122.946;2024-03-07T00:13:49;0.95;;;0.38;;
51467;SDS011;37545;45.302;-122.946;2024-03-07T00:16:20;0.22;;;0.20;;
51467;SDS011;37545;45.302;-122.946;2024-03-07T00:18:49;0.30;;;0.20;;
51467;SDS011;37545;45.302;-122.946;2024-03-07T00:21:21;0.15;;;0.10;;
51467;SDS011;37545;45.302;-122.946;2024-03-07T00:23:52;2.17;;;0.43;;
51467;SDS011;37545;45.302;-122.946;2024-03-07T00:26:25;1.40;;;0.30;;
51467;SDS011;37545;45.302;-122.946;2024-03-07T00:28:56;0.32;;;0.25;;
51467;SDS011;37545;45.302;-122.946;2024-03-07T00:31:25;0.20;;;0.17;;
51467;SDS011;37545;45.302;-122.946;2024-03-07T00:33:58;0.73;;;0.22;;
51467;SDS011;37545;45.302;-122.946;2024-03-07T00:36:29;0.28;;;0.20;;
51467;SDS011;37545;45.302;-122.946;2024-03-07T00:38:59;0.25;;;0.15;;
51467;SDS011;37545;45.302;-122.946;2024-03-07T00:41:28;0.40;;;0.30;;
51467;SDS011;37545;45.302;-122.946;2024-03-07T00:44:11;0.77;;;0.30;;
51467;SDS011;37545;45.302;-122.946;2024-03-07T00:46:40;0.25;;;0.25;;
51467;SDS011;37545;45.302;-122.946;2024-03-07T00:49:09;0.40;;;0.30;;
51467;SDS011;37545;45.302;-122.946;2024-03-07T00:51:40;0.50;;;0.50;;
51467;SDS011;37545;45.302;-122.946;2024-03-07T00:54:10;0.68;;;0.63;;
51467;SDS011;37545;45.302;-122.946;2024-03-07T00:56:40;0.25;;;0.15;;
51467;SDS011;37545;45.302;-122.946;2024-03-07T01:06:57;1.30;;;0.28;;
51467;SDS011;37545;45.302;-122.946;2024-03-07T01:09:30;0.80;;;0.45;;
51467;SDS011;37545;45.302;-122.946;2024-03-07T01:12:01;0.45;;;0.28;;
51467;SDS011;37545;45.302;-122.946;2024-03-07T01:14:31;0.43;;;0.25;;
51467;SDS011;37545;45.302;-122.946;2024-03-07T01:17:09;1.85;;;0.43;;
51467;SDS011;37545;45.302;-122.946;2024-03-07T01:19:38;4.43;;;0.45;;
51467;SDS011;37545;45.302;-122.946;2024-03-07T01:22:09;0.50;;;0.38;;
51467;SDS011;37545;45.302;-122.946;2024-03-07T01:24:40;0.52;;;0.22;;
51467;SDS011;37545;45.302;-122.946;2024-03-07T01:27:12;0.60;;;0.50;;
51467;SDS011;37545;45.302;-122.946;2024-03-07T02:08:36;0.73;;;0.55;;
51467;SDS011;37545;45.302;-122.946;2024-03-07T02:11:09;0.80;;;0.60;;
51467;SDS011;37545;45.302;-122.946;2024-03-07T02:13:41;1.02;;;0.40;;
51467;SDS011;37545;45.302;-122.946;2024-03-07T02:16:18;1.38;;;0.68;;
51467;SDS011;37545;45.302;-122.946;2024-03-07T02:18:47;2.28;;;1.23;;
51467;SDS011;37545;45.302;-122.946;2024-03-07T02:21:22;2.55;;;1.08;;
51467;SDS011;37545;45.302;-122.946;2024-03-07T02:23:54;2.05;;;0.90;;
51467;SDS011;37545;45.302;-122.946;2024-03-07T02:26:23;1.92;;;1.10;;
51467;SDS011;37545;45.302;-122.946;2024-03-07T02:28:52;1.20;;;0.60;;
51467;SDS011;37545;45.302;-122.946;2024-03-07T02:31:26;0.85;;;0.63;;
51467;SDS011;37545;45.302;-122.946;2024-03-07T02:34:00;1.85;;;0.75;;
51467;SDS011;37545;45.302;-122.946;2024-03-07T02:36:31;0.93;;;0.68;;
51467;SDS011;37545;45.302;-122.946;2024-03-07T02:39:01;2.25;;;0.70;;
51467;SDS011;37545;45.302;-122.946;2024-03-07T02:41:30;0.93;;;0.57;;
51467;SDS011;37545;45.302;-122.946;2024-03-07T02:43:59;1.08;;;0.60;;
51467;SDS011;37545;45.302;-122.946;2024-03-07T02:46:29;1.30;;;0.60;;
51467;SDS011;37545;45.302;-122.946;2024-03-07T02:49:02;2.03;;;0.70;;
51467;SDS011;37545;45.302;-122.946;2024-03-07T02:51:42;2.70;;;0.52;;
51467;SDS011;37545;45.302;-122.946;2024-03-07T02:54:14;1.85;;;0.90;;
51467;SDS011;37545;45.302;-122.946;2024-03-07T02:56:43;1.23;;;0.60;;
51467;SDS011;37545;45.302;-122.946;2024-03-07T02:59:18;2.38;;;0.50;;
51467;SDS011;37545;45.302;-122.946;2024-03-07T03:01:47;0.85;;;0.50;;
51467;SDS011;37545;45.302;-122.946;2024-03-07T03:04:16;0.85;;;0.50;;
51467;SDS011;37545;45.302;-122.946;2024-03-07T03:06:48;1.08;;;0.60;;
51467;SDS011;37545;45.302;-122.946;2024-03-07T03:09:30;0.57;;;0.47;;
51467;SDS011;37545;45.302;-122.946;2024-03-07T03:11:59;0.55;;;0.22;;
51467;SDS011;37545;45.302;-122.946;2024-03-07T03:14:29;2.28;;;0.43;;
51467;SDS011;37545;45.302;-122.946;2024-03-07T03:17:01;0.82;;;0.43;;
51467;SDS011;37545;45.302;-122.946;2024-03-07T03:19:30;0.75;;;0.43;;
51467;SDS011;37545;45.302;-122.946;2024-03-07T03:22:01;0.60;;;0.40;;
51467;SDS011;37545;45.302;-122.946;2024-03-07T03:24:30;1.52;;;0.85;;
51467;SDS011;37545;45.302;-122.946;2024-03-07T03:27:02;1.73;;;1.08;;
51467;SDS011;37545;45.302;-122.946;2024-03-07T03:29:31;1.92;;;1.20;;
51467;SDS011;37545;45.302;-122.946;2024-03-07T03:32:00;0.80;;;0.70;;
51467;SDS011;37545;45.302;-122.946;2024-03-07T03:34:31;1.42;;;0.50;;
51467;SDS011;37545;45.302;-122.946;2024-03-07T03:37:04;2.97;;;0.60;;
51467;SDS011;37545;45.302;-122.946;2024-03-07T03:39:34;0.85;;;0.60;;
51467;SDS011;37545;45.302;-122.946;2024-03-07T03:42:03;2.83;;;0.63;;
51467;SDS011;37545;45.302;-122.946;2024-03-07T03:44:33;2.33;;;0.77;;
51467;SDS011;37545;45.302;-122.946;2024-03-07T03:47:02;0.98;;;0.50;;
51467;SDS011;37545;45.302;-122.946;2024-03-07T03:49:31;1.30;;;0.70;;
51467;SDS011;37545;45.302;-122.946;2024-03-07T03:52:00;1.70;;;0.70;;
51467;SDS011;37545;45.302;-122.946;2024-03-07T03:54:30;1.17;;;0.50;;
51467;SDS011;37545;45.302;-122.946;2024-03-07T03:56:59;1.48;;;0.65;;
51467;SDS011;37545;45.302;-122.946;2024-03-07T03:59:31;1.05;;;0.70;;
51467;SDS011;37545;45.302;-122.946;2024-03-07T04:02:01;1.60;;;0.80;;
51467;SDS011;37545;45.302;-122.946;2024-03-07T04:04:30;0.63;;;0.43;;
51467;SDS011;37545;45.302;-122.946;2024-03-07T04:07:01;2.30;;;0.70;;
51467;SDS011;37545;45.302;-122.946;2024-03-07T04:09:34;0.55;;;0.45;;
51467;SDS011;37545;45.302;-122.946;2024-03-07T04:12:03;1.42;;;0.47;;
51467;SDS011;37545;45.302;-122.946;2024-03-07T04:14:36;1.17;;;0.63;;
51467;SDS011;37545;45.302;-122.946;2024-03-07T04:17:06;0.70;;;0.60;;
51467;SDS011;37545;45.302;-122.946;2024-03-07T04:19:37;2.42;;;0.82;;
51467;SDS011;37545;45.302;-122.946;2024-03-07T04:22:07;2.25;;;0.52;;
51467;SDS011;37545;45.302;-122.946;2024-03-07T04:24:38;2.22;;;1.17;;
51467;SDS011;37545;45.302;-122.946;2024-03-07T04:27:11;1.87;;;0.60;;
51467;SDS011;37545;45.302;-122.946;2024-03-07T04:29:40;2.10;;;0.70;;
51467;SDS011;37545;45.302;-122.946;2024-03-07T04:32:09;1.38;;;0.80;;
51467;SDS011;37545;45.302;-122.946;2024-03-07T04:34:38;1.80;;;0.90;;
51467;SDS011;37545;45.302;-122.946;2024-03-07T04:37:09;2.03;;;1.20;;
51467;SDS011;37545;45.302;-122.946;2024-03-07T04:39:43;0.93;;;0.43;;
51467;SDS011;37545;45.302;-122.946;2024-03-07T04:42:12;0.68;;;0.40;;
51467;SDS011;37545;45.302;-122.946;2024-03-07T04:44:41;1.08;;;0.43;;
51467;SDS011;37545;45.302;-122.946;2024-03-07T04:47:13;0.22;;;0.22;;
51467;SDS011;37545;45.302;-122.946;2024-03-07T04:49:42;0.83;;;0.30;;
51467;SDS011;37545;45.302;-122.946;2024-03-07T04:52:11;1.08;;;0.47;;
51467;SDS011;37545;45.302;-122.946;2024-03-07T04:54:40;1.08;;;0.60;;
51467;SDS011;37545;45.302;-122.946;2024-03-07T04:57:11;4.47;;;0.73;;
51467;SDS011;37545;45.302;-122.946;2024-03-07T04:59:40;0.93;;;0.60;;
51467;SDS011;37545;45.302;-122.946;2024-03-07T05:02:09;1.40;;;0.47;;
51467;SDS011;37545;45.302;-122.946;2024-03-07T05:04:38;2.17;;;0.60;;
51467;SDS011;37545;45.302;-122.946;2024-03-07T05:07:06;1.73;;;0.60;;
51467;SDS011;37545;45.302;-122.946;2024-03-07T05:09:36;0.68;;;0.60;;
51467;SDS011;37545;45.302;-122.946;2024-03-07T05:12:10;2.45;;;0.95;;
51467;SDS011;37545;45.302;-122.946;2024-03-07T05:14:41;6.60;;;2.17;;
51467;SDS011;37545;45.302;-122.946;2024-03-07T05:17:10;4.50;;;1.63;;
51467;SDS011;37545;45.302;-122.946;2024-03-07T05:19:39;7.75;;;2.45;;
51467;SDS011;37545;45.302;-122.946;2024-03-07T05:22:09;2.92;;;1.30;;
51467;SDS011;37545;45.302;-122.946;2024-03-07T05:24:41;2.47;;;1.15;;
51467;SDS011;37545;45.302;-122.946;2024-03-07T05:27:12;2.92;;;0.95;;
51467;SDS011;37545;45.302;-122.946;2024-03-07T05:29:46;2.67;;;1.08;;
51467;SDS011;37545;45.302;-122.946;2024-03-07T05:32:22;1.90;;;1.27;;
51467;SDS011;37545;45.302;-122.946;2024-03-07T05:34:52;2.35;;;0.88;;
51467;SDS011;37545;45.302;-122.946;2024-03-07T05:37:22;0.73;;;0.47;;
51467;SDS011;37545;45.302;-122.946;2024-03-07T05:39:53;2.35;;;0.68;;
51467;SDS011;37545;45.302;-122.946;2024-03-07T05:42:24;2.17;;;0.98;;
51467;SDS011;37545;45.302;-122.946;2024-03-07T05:44:53;1.77;;;0.77;;
51467;SDS011;37545;45.302;-122.946;2024-03-07T05:47:24;1.58;;;0.68;;
51467;SDS011;37545;45.302;-122.946;2024-03-07T05:49:55;1.52;;;0.75;;
51467;SDS011;37545;45.302;-122.946;2024-03-07T05:52:24;3.67;;;1.10;;
51467;SDS011;37545;45.302;-122.946;2024-03-07T05:54:53;1.25;;;0.57;;
51467;SDS011;37545;45.302;-122.946;2024-03-07T05:57:24;1.08;;;0.57;;
51467;SDS011;37545;45.302;-122.946;2024-03-07T05:59:56;1.65;;;0.85;;
51467;SDS011;37545;45.302;-122.946;2024-03-07T06:02:25;2.03;;;0.65;;
51467;SDS011;37545;45.302;-122.946;2024-03-07T06:04:54;1.73;;;0.75;;
51467;SDS011;37545;45.302;-122.946;2024-03-07T06:07:23;2.75;;;0.90;;
51467;SDS011;37545;45.302;-122.946;2024-03-07T06:09:51;1.65;;;0.80;;
51467;SDS011;37545;45.302;-122.946;2024-03-07T06:12:24;4.72;;;1.50;;
51467;SDS011;37545;45.302;-122.946;2024-03-07T06:14:53;4.63;;;1.15;;
51467;SDS011;37545;45.302;-122.946;2024-03-07T06:17:22;1.58;;;0.60;;
51467;SDS011;37545;45.302;-122.946;2024-03-07T06:19:52;3.58;;;1.02;;
51467;SDS011;37545;45.302;-122.946;2024-03-07T06:22:21;3.75;;;1.40;;
51467;SDS011;37545;45.302;-122.946;2024-03-07T06:24:50;5.78;;;1.02;;
51467;SDS011;37545;45.302;-122.946;2024-03-07T06:27:19;1.85;;;1.10;;
51467;SDS011;37545;45.302;-122.946;2024-03-07T06:30:05;2.67;;;0.85;;
51467;SDS011;37545;45.302;-122.946;2024-03-07T06:32:35;4.60;;;1.65;;
51467;SDS011;37545;45.302;-122.946;2024-03-07T06:35:06;2.55;;;0.90;;
51467;SDS011;37545;45.302;-122.946;2024-03-07T06:37:36;3.08;;;0.80;;
51467;SDS011;37545;45.302;-122.946;2024-03-07T06:40:09;3.58;;;1.23;;
51467;SDS011;37545;45.302;-122.946;2024-03-07T06:42:40;2.20;;;1.23;;
51467;SDS011;37545;45.302;-122.946;2024-03-07T06:45:12;2.13;;;0.95;;
51467;SDS011;37545;45.302;-122.946;2024-03-07T06:47:41;5.78;;;1.38;;
51467;SDS011;37545;45.302;-122.946;2024-03-07T06:50:10;2.90;;;0.60;;
51467;SDS011;37545;45.302;-122.946;2024-03-07T06:52:45;1.67;;;1.00;;
51467;SDS011;37545;45.302;-122.946;2024-03-07T06:55:15;1.98;;;0.77;;
51467;SDS011;37545;45.302;-122.946;2024-03-07T06:57:45;2.15;;;0.93;;
51467;SDS011;37545;45.302;-122.946;2024-03-07T07:00:17;3.08;;;1.00;;
51467;SDS011;37545;45.302;-122.946;2024-03-07T07:02:46;2.28;;;0.77;;
51467;SDS011;37545;45.302;-122.946;2024-03-07T07:05:16;2.22;;;0.70;;
51467;SDS011;37545;45.302;-122.946;2024-03-07T07:07:46;1.30;;;0.68;;
51467;SDS011;37545;45.302;-122.946;2024-03-07T07:10:16;1.38;;;0.70;;
51467;SDS011;37545;45.302;-122.946;2024-03-07T07:12:49;1.42;;;0.60;;
51467;SDS011;37545;45.302;-122.946;2024-03-07T07:15:22;2.05;;;0.82;;
51467;SDS011;37545;45.302;-122.946;2024-03-07T07:17:51;3.60;;;1.05;;
51467;SDS011;37545;45.302;-122.946;2024-03-07T07:20:20;3.83;;;1.30;;
51467;SDS011;37545;45.302;-122.946;2024-03-07T07:22:49;1.92;;;0.45;;
51467;SDS011;37545;45.302;-122.946;2024-03-07T07:25:21;4.75;;;1.05;;
51467;SDS011;37545;45.302;-122.946;2024-03-07T07:27:53;2.35;;;1.10;;
51467;SDS011;37545;45.302;-122.946;2024-03-07T07:30:24;1.48;;;0.70;;
51467;SDS011;37545;45.302;-122.946;2024-03-07T07:32:53;4.07;;;1.00;;
51467;SDS011;37545;45.302;-122.946;2024-03-07T07:35:22;1.95;;;1.00;;
51467;SDS011;37545;45.302;-122.946;2024-03-07T07:37:51;1.85;;;0.70;;
51467;SDS011;37545;45.302;-122.946;2024-03-07T07:40:22;0.82;;;0.68;;
51467;SDS011;37545;45.302;-122.946;2024-03-07T07:42:53;2.42;;;0.65;;
51467;SDS011;37545;45.302;-122.946;2024-03-07T07:45:24;0.90;;;0.65;;
51467;SDS011;37545;45.302;-122.946;2024-03-07T07:47:55;5.97;;;1.88;;
51467;SDS011;37545;45.302;-122.946;2024-03-07T07:50:24;1.55;;;1.20;;
51467;SDS011;37545;45.302;-122.946;2024-03-07T07:52:54;2.88;;;1.20;;
51467;SDS011;37545;45.302;-122.946;2024-03-07T07:55:24;3.65;;;1.13;;
51467;SDS011;37545;45.302;-122.946;2024-03-07T07:57:54;3.22;;;0.90;;
51467;SDS011;37545;45.302;-122.946;2024-03-07T08:00:26;1.95;;;0.90;;
51467;SDS011;37545;45.302;-122.946;2024-03-07T08:02:57;5.22;;;1.42;;
51467;SDS011;37545;45.302;-122.946;2024-03-07T08:05:27;4.22;;;0.93;;
51467;SDS011;37545;45.302;-122.946;2024-03-07T08:07:57;2.85;;;1.00;;
51467;SDS011;37545;45.302;-122.946;2024-03-07T08:10:28;2.20;;;1.23;;
51467;SDS011;37545;45.302;-122.946;2024-03-07T08:12:57;2.38;;;0.98;;
51467;SDS011;37545;45.302;-122.946;2024-03-07T08:15:29;6.22;;;0.80;;
51467;SDS011;37545;45.302;-122.946;2024-03-07T08:18:00;2.63;;;1.15;;
51467;SDS011;37545;45.302;-122.946;2024-03-07T08:20:34;2.50;;;1.20;;
51467;SDS011;37545;45.302;-122.946;2024-03-07T08:23:03;16.17;;;1.55;;
51467;SDS011;37545;45.302;-122.946;2024-03-07T08:25:35;3.65;;;1.45;;
51467;SDS011;37545;45.302;-122.946;2024-03-07T08:28:04;4.85;;;1.92;;
51467;SDS011;37545;45.302;-122.946;2024-03-07T08:30:36;2.60;;;1.50;;
51467;SDS011;37545;45.302;-122.946;2024-03-07T08:33:05;2.70;;;1.40;;
51467;SDS011;37545;45.302;-122.946;2024-03-07T08:35:34;5.18;;;1.58;;
51467;SDS011;37545;45.302;-122.946;2024-03-07T08:38:05;3.20;;;1.40;;
51467;SDS011;37545;45.302;-122.946;2024-03-07T08:40:35;2.55;;;1.50;;
51467;SDS011;37545;45.302;-122.946;2024-03-07T08:43:04;3.25;;;1.35;;
51467;SDS011;37545;45.302;-122.946;2024-03-07T08:45:35;4.22;;;1.88;;
51467;SDS011;37545;45.302;-122.946;2024-03-07T08:48:05;2.10;;;1.27;;
51467;SDS011;37545;45.302;-122.946;2024-03-07T08:50:35;2.63;;;1.42;;
51467;SDS011;37545;45.302;-122.946;2024-03-07T08:53:04;3.22;;;1.30;;
51467;SDS011;37545;45.302;-122.946;2024-03-07T08:55:34;1.75;;;1.08;;
51467;SDS011;37545;45.302;-122.946;2024-03-07T08:58:03;3.55;;;1.52;;
51467;SDS011;37545;45.302;-122.946;2024-03-07T09:00:36;6.30;;;1.60;;
51467;SDS011;37545;45.302;-122.946;2024-03-07T09:03:05;6.82;;;2.17;;
51467;SDS011;37545;45.302;-122.946;2024-03-07T09:05:35;4.15;;;1.83;;
51467;SDS011;37545;45.302;-122.946;2024-03-07T09:08:04;4.38;;;1.58;;
51467;SDS011;37545;45.302;-122.946;2024-03-07T09:10:39;7.20;;;1.60;;
51467;SDS011;37545;45.302;-122.946;2024-03-07T09:13:09;1.50;;;0.93;;
51467;SDS011;37545;45.302;-122.946;2024-03-07T09:15:41;3.45;;;1.00;;
51467;SDS011;37545;45.302;-122.946;2024-03-07T09:18:10;2.72;;;1.15;;
51467;SDS011;37545;45.302;-122.946;2024-03-07T09:20:39;4.97;;;1.98;;
51467;SDS011;37545;45.302;-122.946;2024-03-07T09:23:08;1.42;;;0.90;;
51467;SDS011;37545;45.302;-122.946;2024-03-07T09:25:37;3.40;;;0.75;;
51467;SDS011;37545;45.302;-122.946;2024-03-07T09:28:06;2.70;;;1.17;;
51467;SDS011;37545;45.302;-122.946;2024-03-07T09:30:46;4.53;;;1.60;;
51467;SDS011;37545;45.302;-122.946;2024-03-07T09:33:18;3.05;;;1.13;;
51467;SDS011;37545;45.302;-122.946;2024-03-07T09:35:50;2.78;;;1.00;;
51467;SDS011;37545;45.302;-122.946;2024-03-07T09:38:24;1.48;;;0.80;;
51467;SDS011;37545;45.302;-122.946;2024-03-07T09:40:53;2.85;;;1.20;;
51467;SDS011;37545;45.302;-122.946;2024-03-07T09:43:22;2.28;;;1.20;;
51467;SDS011;37545;45.302;-122.946;2024-03-07T09:46:04;2.88;;;1.23;;
51467;SDS011;37545;45.302;-122.946;2024-03-07T09:48:35;2.10;;;0.85;;
51467;SDS011;37545;45.302;-122.946;2024-03-07T09:51:05;2.00;;;1.30;;
51467;SDS011;37545;45.302;-122.946;2024-03-07T09:53:37;4.37;;;1.63;;
51467;SDS011;37545;45.302;-122.946;2024-03-07T09:56:07;3.95;;;1.23;;
51467;SDS011;37545;45.302;-122.946;2024-03-07T09:58:39;3.20;;;1.13;;
51467;SDS011;37545;45.302;-122.946;2024-03-07T10:01:12;1.60;;;1.00;;
51467;SDS011;37545;45.302;-122.946;2024-03-07T10:03:44;2.17;;;1.10;;
51467;SDS011;37545;45.302;-122.946;2024-03-07T10:06:15;1.00;;;0.85;;
51467;SDS011;37545;45.302;-122.946;2024-03-07T10:08:45;5.72;;;1.48;;
51467;SDS011;37545;45.302;-122.946;2024-03-07T10:11:17;4.05;;;1.38;;
51467;SDS011;37545;45.302;-122.946;2024-03-07T10:13:46;1.80;;;0.98;;
51467;SDS011;37545;45.302;-122.946;2024-03-07T10:16:19;2.67;;;1.02;;
51467;SDS011;37545;45.302;-122.946;2024-03-07T10:18:48;3.22;;;1.25;;
51467;SDS011;37545;45.302;-122.946;2024-03-07T10:21:19;1.33;;;1.05;;
51467;SDS011;37545;45.302;-122.946;2024-03-07T10:23:49;2.22;;;1.10;;
51467;SDS011;37545;45.302;-122.946;2024-03-07T10:26:19;5.97;;;1.67;;
51467;SDS011;37545;45.302;-122.946;2024-03-07T10:28:49;2.88;;;1.20;;
51467;SDS011;37545;45.302;-122.946;2024-03-07T10:31:29;2.33;;;1.23;;
51467;SDS011;37545;45.302;-122.946;2024-03-07T10:34:00;2.10;;;1.30;;
51467;SDS011;37545;45.302;-122.946;2024-03-07T10:36:29;2.33;;;1.33;;
51467;SDS011;37545;45.302;-122.946;2024-03-07T10:38:59;4.55;;;1.40;;
51467;SDS011;37545;45.302;-122.946;2024-03-07T10:41:44;4.20;;;1.15;;
51467;SDS011;37545;45.302;-122.946;2024-03-07T10:44:18;2.75;;;1.42;;
51467;SDS011;37545;45.302;-122.946;2024-03-07T10:46:58;1.80;;;1.02;;
51467;SDS011;37545;45.302;-122.946;2024-03-07T10:49:30;4.03;;;1.55;;
51467;SDS011;37545;45.302;-122.946;2024-03-07T10:52:02;4.07;;;1.70;;
51467;SDS011;37545;45.302;-122.946;2024-03-07T10:54:39;1.45;;;1.08;;
51467;SDS011;37545;45.302;-122.946;2024-03-07T10:57:16;2.90;;;1.67;;
51467;SDS011;37545;45.302;-122.946;2024-03-07T10:59:56;4.40;;;1.45;;
51467;SDS011;37545;45.302;-122.946;2024-03-07T11:05:14;2.33;;;1.20;;
51467;SDS011;37545;45.302;-122.946;2024-03-07T11:07:44;2.78;;;1.65;;
51467;SDS011;37545;45.302;-122.946;2024-03-07T11:10:15;3.45;;;1.40;;
51467;SDS011;37545;45.302;-122.946;2024-03-07T11:12:46;2.90;;;1.77;;
51467;SDS011;37545;45.302;-122.946;2024-03-07T11:15:17;6.72;;;1.60;;
51467;SDS011;37545;45.302;-122.946;2024-03-07T11:17:50;3.60;;;1.90;;
51467;SDS011;37545;45.302;-122.946;2024-03-07T11:20:20;4.50;;;1.57;;
51467;SDS011;37545;45.302;-122.946;2024-03-07T11:23:07;4.63;;;1.30;;
51467;SDS011;37545;45.302;-122.946;2024-03-07T11:26:01;2.55;;;1.40;;
51467;SDS011;37545;45.302;-122.946;2024-03-07T11:28:34;2.15;;;1.10;;
51467;SDS011;37545;45.302;-122.946;2024-03-07T11:31:07;3.88;;;1.63;;
51467;SDS011;37545;45.302;-122.946;2024-03-07T11:33:39;3.00;;;1.55;;
51467;SDS011;37545;45.302;-122.946;2024-03-07T11:36:09;4.25;;;1.70;;
51467;SDS011;37545;45.302;-122.946;2024-03-07T11:38:44;4.05;;;1.67;;
51467;SDS011;37545;45.302;-122.946;2024-03-07T11:41:15;2.80;;;1.48;;
51467;SDS011;37545;45.302;-122.946;2024-03-07T11:43:47;2.53;;;1.25;;
51467;SDS011;37545;45.302;-122.946;2024-03-07T11:46:16;2.63;;;1.20;;
51467;SDS011;37545;45.302;-122.946;2024-03-07T11:48:48;3.15;;;1.33;;
51467;SDS011;37545;45.302;-122.946;2024-03-07T11:51:20;3.88;;;1.38;;
51467;SDS011;37545;45.302;-122.946;2024-03-07T11:53:54;3.13;;;1.95;;
51467;SDS011;37545;45.302;-122.946;2024-03-07T11:56:23;5.82;;;1.40;;
51467;SDS011;37545;45.302;-122.946;2024-03-07T11:58:53;3.33;;;1.40;;
51467;SDS011;37545;45.302;-122.946;2024-03-07T12:01:23;3.95;;;1.52;;
51467;SDS011;37545;45.302;-122.946;2024-03-07T12:03:56;2.08;;;0.95;;
51467;SDS011;37545;45.302;-122.946;2024-03-07T12:06:26;2.23;;;1.43;;
51467;SDS011;37545;45.302;-122.946;2024-03-07T12:08:56;1.88;;;0.98;;
51467;SDS011;37545;45.302;-122.946;2024-03-07T12:11:27;2.15;;;1.00;;
51467;SDS011;37545;45.302;-122.946;2024-03-07T12:13:56;1.67;;;1.08;;
51467;SDS011;37545;45.302;-122.946;2024-03-07T12:16:25;1.45;;;0.90;;
51467;SDS011;37545;45.302;-122.946;2024-03-07T12:18:56;1.95;;;0.98;;
51467;SDS011;37545;45.302;-122.946;2024-03-07T12:21:26;1.58;;;0.90;;
51467;SDS011;37545;45.302;-122.946;2024-03-07T12:23:55;2.80;;;1.08;;
51467;SDS011;37545;45.302;-122.946;2024-03-07T12:26:24;3.40;;;1.38;;
51467;SDS011;37545;45.302;-122.946;2024-03-07T12:29:06;2.08;;;1.25;;
51467;SDS011;37545;45.302;-122.946;2024-03-07T12:31:37;1.73;;;0.98;;
51467;SDS011;37545;45.302;-122.946;2024-03-07T12:34:12;2.70;;;1.10;;
51467;SDS011;37545;45.302;-122.946;2024-03-07T12:36:41;1.27;;;1.00;;
51467;SDS011;37545;45.302;-122.946;2024-03-07T12:39:21;2.80;;;1.00;;
51467;SDS011;37545;45.302;-122.946;2024-03-07T12:41:58;5.38;;;1.25;;
51467;SDS011;37545;45.302;-122.946;2024-03-07T12:44:28;2.25;;;0.90;;
51467;SDS011;37545;45.302;-122.946;2024-03-07T12:47:09;1.85;;;0.90;;
51467;SDS011;37545;45.302;-122.946;2024-03-07T12:49:41;2.42;;;0.88;;
51467;SDS011;37545;45.302;-122.946;2024-03-07T12:52:11;4.32;;;0.80;;
51467;SDS011;37545;45.302;-122.946;2024-03-07T12:54:41;1.35;;;0.93;;
51467;SDS011;37545;45.302;-122.946;2024-03-07T12:57:10;0.82;;;0.55;;
51467;SDS011;37545;45.302;-122.946;2024-03-07T12:59:41;3.35;;;1.00;;
51467;SDS011;37545;45.302;-122.946;2024-03-07T13:02:10;3.05;;;1.35;;
51467;SDS011;37545;45.302;-122.946;2024-03-07T13:04:42;2.45;;;0.85;;
51467;SDS011;37545;45.302;-122.946;2024-03-07T13:07:10;1.63;;;0.80;;
51467;SDS011;37545;45.302;-122.946;2024-03-07T13:09:41;2.00;;;0.80;;
51467;SDS011;37545;45.302;-122.946;2024-03-07T13:12:10;4.15;;;1.17;;
51467;SDS011;37545;45.302;-122.946;2024-03-07T13:14:40;3.97;;;0.88;;
51467;SDS011;37545;45.302;-122.946;2024-03-07T13:17:10;1.20;;;0.60;;
51467;SDS011;37545;45.302;-122.946;2024-03-07T13:19:43;2.17;;;1.05;;
51467;SDS011;37545;45.302;-122.946;2024-03-07T13:22:15;3.17;;;1.00;;
51467;SDS011;37545;45.302;-122.946;2024-03-07T13:24:44;4.95;;;1.02;;
51467;SDS011;37545;45.302;-122.946;2024-03-07T13:27:13;1.08;;;0.98;;
51467;SDS011;37545;45.302;-122.946;2024-03-07T13:29:47;2.10;;;1.05;;
51467;SDS011;37545;45.302;-122.946;2024-03-07T13:32:17;0.88;;;0.60;;
51467;SDS011;37545;45.302;-122.946;2024-03-07T13:34:47;1.10;;;1.00;;
51467;SDS011;37545;45.302;-122.946;2024-03-07T13:37:16;1.77;;;0.82;;
51467;SDS011;37545;45.302;-122.946;2024-03-07T13:39:46;3.08;;;0.88;;
51467;SDS011;37545;45.302;-122.946;2024-03-07T13:42:17;0.98;;;0.63;;
51467;SDS011;37545;45.302;-122.946;2024-03-07T13:44:47;2.58;;;0.98;;
51467;SDS011;37545;45.302;-122.946;2024-03-07T13:47:16;1.48;;;1.00;;
51467;SDS011;37545;45.302;-122.946;2024-03-07T13:49:49;2.03;;;0.77;;
51467;SDS011;37545;45.302;-122.946;2024-03-07T13:52:18;1.30;;;0.90;;
51467;SDS011;37545;45.302;-122.946;2024-03-07T13:54:48;0.82;;;0.68;;
51467;SDS011;37545;45.302;-122.946;2024-03-07T14:11:08;1.52;;;0.43;;
51467;SDS011;37545;45.302;-122.946;2024-03-07T14:13:57;2.67;;;1.00;;
51467;SDS011;37545;45.302;-122.946;2024-03-07T14:23:30;1.63;;;0.63;;
51467;SDS011;37545;45.302;-122.946;2024-03-07T14:41:57;1.67;;;0.90;;
51467;SDS011;37545;45.302;-122.946;2024-03-07T14:44:42;4.35;;;1.65;;
51467;SDS011;37545;45.302;-122.946;2024-03-07T14:47:14;4.60;;;1.50;;
51467;SDS011;37545;45.302;-122.946;2024-03-07T14:49:47;3.45;;;0.77;;
51467;SDS011;37545;45.302;-122.946;2024-03-07T14:52:19;1.88;;;0.93;;
51467;SDS011;37545;45.302;-122.946;2024-03-07T15:10:25;2.83;;;1.33;;
51467;SDS011;37545;45.302;-122.946;2024-03-07T15:12:58;3.33;;;2.25;;
51467;SDS011;37545;45.302;-122.946;2024-03-07T15:15:28;4.20;;;1.95;;
51467;SDS011;37545;45.302;-122.946;2024-03-07T15:17:58;6.72;;;2.63;;
51467;SDS011;37545;45.302;-122.946;2024-03-07T15:20:27;4.50;;;1.73;;
51467;SDS011;37545;45.302;-122.946;2024-03-07T15:22:57;4.07;;;1.48;;
51467;SDS011;37545;45.302;-122.946;2024-03-07T15:25:30;2.10;;;0.97;;
51467;SDS011;37545;45.302;-122.946;2024-03-07T15:27:59;7.05;;;1.65;;
51467;SDS011;37545;45.302;-122.946;2024-03-07T15:30:28;1.55;;;1.10;;
51467;SDS011;37545;45.302;-122.946;2024-03-07T15:33:00;3.13;;;1.45;;
51467;SDS011;37545;45.302;-122.946;2024-03-07T15:35:33;5.18;;;1.20;;
51467;SDS011;37545;45.302;-122.946;2024-03-07T15:38:05;8.35;;;1.52;;
51467;SDS011;37545;45.302;-122.946;2024-03-07T15:40:36;3.33;;;1.58;;
51467;SDS011;37545;45.302;-122.946;2024-03-07T15:43:09;3.35;;;1.65;;
51467;SDS011;37545;45.302;-122.946;2024-03-07T15:45:38;7.18;;;1.77;;
51467;SDS011;37545;45.302;-122.946;2024-03-07T15:48:07;3.08;;;1.58;;
51467;SDS011;37545;45.302;-122.946;2024-03-07T15:50:38;2.75;;;1.42;;
51467;SDS011;37545;45.302;-122.946;2024-03-07T15:53:20;3.97;;;1.92;;
51467;SDS011;37545;45.302;-122.946;2024-03-07T15:55:51;3.60;;;1.83;;
51467;SDS011;37545;45.302;-122.946;2024-03-07T15:58:20;5.53;;;2.15;;
51467;SDS011;37545;45.302;-122.946;2024-03-07T16:00:49;6.80;;;2.67;;
51467;SDS011;37545;45.302;-122.946;2024-03-07T16:03:21;4.75;;;2.72;;
51467;SDS011;37545;45.302;-122.946;2024-03-07T16:05:51;7.13;;;2.92;;
51467;SDS011;37545;45.302;-122.946;2024-03-07T16:08:20;4.70;;;1.92;;
51467;SDS011;37545;45.302;-122.946;2024-03-07T16:10:51;7.80;;;2.47;;
51467;SDS011;37545;45.302;-122.946;2024-03-07T16:13:23;4.45;;;2.22;;